createdAt,value
2023-01-21T00:00:33.791Z,10.1
2023-01-21T00:01:34.377Z,10.3
2023-01-21T00:02:34.977Z,10.0
2023-01-21T00:03:35.666Z,10.7
2023-01-21T00:04:36.217Z,9.7
2023-01-21T00:05:36.839Z,13.7
2023-01-21T00:06:37.422Z,9.7
2023-01-21T00:07:38.017Z,10.0
2023-01-21T00:08:38.604Z,81.6
2023-01-21T00:09:39.200Z,34.6
2023-01-21T00:10:39.793Z,10.6
2023-01-21T00:11:40.389Z,21.1
2023-01-21T00:12:40.985Z,40.4
2023-01-21T00:13:41.577Z,52.6
2023-01-21T00:14:42.172Z,18.8
2023-01-21T00:15:42.820Z,17.1
2023-01-21T00:16:43.372Z,17.3
2023-01-21T00:17:43.976Z,39.2
2023-01-21T00:18:44.568Z,14.7
2023-01-21T00:19:45.158Z,11.7
2023-01-21T00:20:45.758Z,10.7
2023-01-21T00:21:46.350Z,10.8
2023-01-21T00:22:46.937Z,9.9
2023-01-21T00:23:47.548Z,17.4
2023-01-21T00:24:48.142Z,9.9
2023-01-21T00:25:48.731Z,11.2
2023-01-21T00:26:49.326Z,10.9
2023-01-21T00:27:49.941Z,12.7
2023-01-21T00:28:50.539Z,10.7
2023-01-21T00:29:51.148Z,10.0
2023-01-21T00:30:52.650Z,12.3
2023-01-21T00:31:53.288Z,10.9
2023-01-21T00:32:53.888Z,13.2
2023-01-21T00:33:54.475Z,10.6
2023-01-21T00:34:55.079Z,11.9
2023-01-21T00:35:55.664Z,12.3
2023-01-21T00:36:56.659Z,12.0
2023-01-21T00:37:57.244Z,11.8
2023-01-21T00:38:57.810Z,11.6
2023-01-21T00:39:58.399Z,11.5
2023-01-21T00:40:58.994Z,13.0
2023-01-21T00:41:59.608Z,12.3
2023-01-21T00:43:00.202Z,14.2
2023-01-21T00:44:00.812Z,11.1
2023-01-21T00:45:01.514Z,12.5
2023-01-21T00:46:02.103Z,11.9
2023-01-21T00:47:02.665Z,11.3
2023-01-21T00:48:03.282Z,13.8
2023-01-21T00:49:03.856Z,13.1
2023-01-21T00:50:04.465Z,10.8
2023-01-21T00:51:05.089Z,12.1
2023-01-21T00:52:05.651Z,10.2
2023-01-21T00:53:06.245Z,10.3
2023-01-21T00:54:06.838Z,14.3
2023-01-21T00:55:07.456Z,13.9
2023-01-21T00:56:08.159Z,13.8
2023-01-21T00:57:08.902Z,13.6
2023-01-21T00:58:09.501Z,11.3
2023-01-21T00:59:10.315Z,12.6
2023-01-21T01:00:10.975Z,10.8
2023-01-21T01:01:11.583Z,14.1
2023-01-21T01:02:12.164Z,10.7
2023-01-21T01:03:12.754Z,10.3
2023-01-21T01:04:13.343Z,11.2
2023-01-21T01:05:13.935Z,10.6
2023-01-21T01:06:14.542Z,12.7
2023-01-21T01:07:15.137Z,13.6
2023-01-21T01:08:15.738Z,14.4
2023-01-21T01:09:16.349Z,11.3
2023-01-21T01:10:17.111Z,10.3
2023-01-21T01:11:17.781Z,12.2
2023-01-21T01:12:18.363Z,13.6
2023-01-21T01:13:18.958Z,13.4
2023-01-21T01:14:19.551Z,10.9
2023-01-21T01:15:20.163Z,12.2
2023-01-21T01:16:20.756Z,11.8
2023-01-21T01:17:21.355Z,12.5
2023-01-21T01:18:21.948Z,12.5
2023-01-21T01:19:22.543Z,12.4
2023-01-21T01:20:23.148Z,11.7
2023-01-21T01:21:23.739Z,14.1
2023-01-21T01:22:24.343Z,15.7
2023-01-21T01:23:24.935Z,13.1
2023-01-21T01:24:25.531Z,15.2
2023-01-21T01:25:26.130Z,12.9
2023-01-21T01:26:26.733Z,12.0
2023-01-21T01:27:27.345Z,12.3
2023-01-21T01:28:27.937Z,12.4
2023-01-21T01:29:28.554Z,13.5
2023-01-21T01:30:29.143Z,13.6
2023-01-21T01:31:29.940Z,15.1
2023-01-21T01:32:30.501Z,13.5
2023-01-21T01:33:31.098Z,16.0
2023-01-21T01:34:31.686Z,13.4
2023-01-21T01:35:32.276Z,13.7
2023-01-21T01:36:32.900Z,11.8
2023-01-21T01:37:33.463Z,13.9
2023-01-21T01:38:34.064Z,12.3
2023-01-21T01:39:34.672Z,12.0
2023-01-21T01:40:35.265Z,14.0
2023-01-21T01:41:35.857Z,12.4
2023-01-21T01:42:36.450Z,13.1
2023-01-21T01:43:37.045Z,13.2
2023-01-21T01:44:37.638Z,14.9
2023-01-21T01:45:38.231Z,17.4
2023-01-21T01:46:38.920Z,14.2
2023-01-21T01:47:39.460Z,14.5
2023-01-21T01:48:40.082Z,14.3
2023-01-21T01:49:40.645Z,12.1
2023-01-21T01:50:41.239Z,13.0
2023-01-21T01:51:41.832Z,15.5
2023-01-21T01:52:42.430Z,15.8
2023-01-21T01:53:43.018Z,14.6
2023-01-21T01:54:43.616Z,15.1
2023-01-21T01:55:44.228Z,18.4
2023-01-21T01:56:44.812Z,20.2
2023-01-21T01:57:45.405Z,23.8
2023-01-21T01:58:46.003Z,23.2
2023-01-21T01:59:46.596Z,22.5
2023-01-21T02:00:47.188Z,22.4
2023-01-21T02:01:47.851Z,21.5
2023-01-21T02:02:48.416Z,21.1
2023-01-21T02:03:48.997Z,23.8
2023-01-21T02:04:49.603Z,28.7
2023-01-21T02:05:50.188Z,24.9
2023-01-21T02:06:50.803Z,25.8
2023-01-21T02:07:51.377Z,25.0
2023-01-21T02:08:51.975Z,28.1
2023-01-21T02:09:52.587Z,27.6
2023-01-21T02:10:53.181Z,23.5
2023-01-21T02:11:53.773Z,29.1
2023-01-21T02:12:54.386Z,30.1
2023-01-21T02:13:54.958Z,31.0
2023-01-21T02:14:55.564Z,29.9
2023-01-21T02:15:56.186Z,32.6
2023-01-21T02:16:56.748Z,29.0
2023-01-21T02:17:57.342Z,29.9
2023-01-21T02:18:57.938Z,29.8
2023-01-21T02:19:58.547Z,29.7
2023-01-21T02:20:59.129Z,32.0
2023-01-21T02:21:59.719Z,33.6
2023-01-21T02:23:00.320Z,31.1
2023-01-21T02:24:00.908Z,34.2
2023-01-21T02:25:01.544Z,34.4
2023-01-21T02:26:02.092Z,31.2
2023-01-21T02:27:02.687Z,36.3
2023-01-21T02:28:03.280Z,41.2
2023-01-21T02:29:03.876Z,34.5
2023-01-21T02:30:04.470Z,35.6
2023-01-21T02:31:05.187Z,34.3
2023-01-21T02:32:05.770Z,35.1
2023-01-21T02:33:06.362Z,32.9
2023-01-21T02:34:06.960Z,41.7
2023-01-21T02:35:07.564Z,34.3
2023-01-21T02:36:08.167Z,39.1
2023-01-21T02:37:08.764Z,41.8
2023-01-21T02:38:09.371Z,42.6
2023-01-21T02:39:09.977Z,37.1
2023-01-21T02:40:10.576Z,45.3
2023-01-21T02:41:11.165Z,38.6
2023-01-21T02:42:11.760Z,43.8
2023-01-21T02:43:12.368Z,42.9
2023-01-21T02:44:12.945Z,45.6
2023-01-21T02:45:13.540Z,40.2
2023-01-21T02:46:14.148Z,47.2
2023-01-21T02:47:14.728Z,47.7
2023-01-21T02:48:15.322Z,49.1
2023-01-21T02:49:15.916Z,50.9
2023-01-21T02:50:16.774Z,45.7
2023-01-21T02:51:17.149Z,50.2
2023-01-21T02:52:17.705Z,56.6
2023-01-21T02:53:18.300Z,55.1
2023-01-21T02:54:18.890Z,48.0
2023-01-21T02:55:19.491Z,55.0
2023-01-21T02:56:20.082Z,49.0
2023-01-21T02:57:20.707Z,49.3
2023-01-21T02:58:21.293Z,51.4
2023-01-21T02:59:21.886Z,50.1
2023-01-21T03:00:22.480Z,55.1
2023-01-21T03:01:23.097Z,52.2
2023-01-21T03:02:23.684Z,57.3
2023-01-21T03:03:24.301Z,49.7
2023-01-21T03:04:24.871Z,51.8
2023-01-21T03:05:25.486Z,54.0
2023-01-21T03:06:26.077Z,53.7
2023-01-21T03:07:26.673Z,50.4
2023-01-21T03:08:27.263Z,47.0
2023-01-21T03:09:27.854Z,55.7
2023-01-21T03:10:28.448Z,57.8
2023-01-21T03:11:29.043Z,50.1
2023-01-21T03:12:29.636Z,54.0
2023-01-21T03:13:30.229Z,59.6
2023-01-21T03:14:30.824Z,54.4
2023-01-21T03:15:31.417Z,53.4
2023-01-21T03:16:32.062Z,56.9
2023-01-21T03:17:32.619Z,53.2
2023-01-21T03:18:33.211Z,50.3
2023-01-21T03:19:33.816Z,52.6
2023-01-21T03:20:34.417Z,48.4
2023-01-21T03:21:35.014Z,45.5
2023-01-21T03:22:35.627Z,56.1
2023-01-21T03:23:36.228Z,49.0
2023-01-21T03:24:36.811Z,48.8
2023-01-21T03:25:37.408Z,52.7
2023-01-21T03:26:38.000Z,55.5
2023-01-21T03:27:38.604Z,51.6
2023-01-21T03:28:39.186Z,43.2
2023-01-21T03:29:39.791Z,44.2
2023-01-21T03:30:40.389Z,41.9
2023-01-21T03:31:41.013Z,49.1
2023-01-21T03:32:41.561Z,44.9
2023-01-21T03:33:42.155Z,46.6
2023-01-21T03:34:42.753Z,39.1
2023-01-21T03:35:43.360Z,44.8
2023-01-21T03:36:43.953Z,41.5
2023-01-21T03:37:44.550Z,37.6
2023-01-21T03:38:45.175Z,41.5
2023-01-21T03:39:45.765Z,38.8
2023-01-21T03:40:46.353Z,38.0
2023-01-21T03:41:46.946Z,49.2
2023-01-21T03:42:47.537Z,42.8
2023-01-21T03:43:48.197Z,40.4
2023-01-21T03:44:48.788Z,39.3
2023-01-21T03:45:49.453Z,39.5
2023-01-21T03:46:49.997Z,37.5
2023-01-21T03:47:50.602Z,39.6
2023-01-21T03:48:51.216Z,43.9
2023-01-21T03:49:51.809Z,38.6
2023-01-21T03:50:52.424Z,39.4
2023-01-21T03:51:53.039Z,39.9
2023-01-21T03:52:53.647Z,40.5
2023-01-21T03:53:54.220Z,37.6
2023-01-21T03:54:54.813Z,38.4
2023-01-21T03:55:55.406Z,37.0
2023-01-21T03:56:56.001Z,37.3
2023-01-21T03:57:56.599Z,42.6
2023-01-21T03:58:57.213Z,42.8
2023-01-21T03:59:57.820Z,39.2
2023-01-21T04:00:58.433Z,38.3
2023-01-21T04:01:59.029Z,41.1
2023-01-21T04:02:59.599Z,37.4
2023-01-21T04:04:00.259Z,36.6
2023-01-21T04:05:00.855Z,40.3
2023-01-21T04:06:01.459Z,42.9
2023-01-21T04:07:02.043Z,41.3
2023-01-21T04:08:02.636Z,40.7
2023-01-21T04:09:03.231Z,39.4
2023-01-21T04:10:03.823Z,40.3
2023-01-21T04:11:04.433Z,40.4
2023-01-21T04:12:05.031Z,39.4
2023-01-21T04:13:05.621Z,35.8
2023-01-21T04:14:06.217Z,40.6
2023-01-21T04:15:06.826Z,40.8
2023-01-21T04:16:07.471Z,42.8
2023-01-21T04:17:08.023Z,38.5
2023-01-21T04:18:08.612Z,39.2
2023-01-21T04:19:09.218Z,37.1
2023-01-21T04:20:09.830Z,38.3
2023-01-21T04:21:10.444Z,41.3
2023-01-21T04:22:11.023Z,43.5
2023-01-21T04:23:11.612Z,40.8
2023-01-21T04:24:12.200Z,36.1
2023-01-21T04:25:12.795Z,42.0
2023-01-21T04:26:13.391Z,39.8
2023-01-21T04:27:13.993Z,41.3
2023-01-21T04:28:14.599Z,42.7
2023-01-21T04:29:15.193Z,39.9
2023-01-21T04:30:16.174Z,41.5
2023-01-21T04:31:16.944Z,42.9
2023-01-21T04:32:17.501Z,39.1
2023-01-21T04:33:18.099Z,38.7
2023-01-21T04:34:18.727Z,38.4
2023-01-21T04:35:19.311Z,39.1
2023-01-21T04:36:19.907Z,39.3
2023-01-21T04:37:20.496Z,41.8
2023-01-21T04:38:21.089Z,37.7
2023-01-21T04:39:21.691Z,40.3
2023-01-21T04:40:22.280Z,37.6
2023-01-21T04:41:25.273Z,37.6
2023-01-21T04:42:24.464Z,39.1
2023-01-21T04:43:25.075Z,41.9
2023-01-21T04:44:25.668Z,37.6
2023-01-21T04:45:26.268Z,42.0
2023-01-21T04:46:26.878Z,37.4
2023-01-21T04:47:27.472Z,38.1
2023-01-21T04:48:28.116Z,44.2
2023-01-21T04:49:28.680Z,36.7
2023-01-21T04:50:29.297Z,37.4
2023-01-21T04:51:29.886Z,39.7
2023-01-21T04:52:30.481Z,36.7
2023-01-21T04:53:31.068Z,34.9
2023-01-21T04:54:31.665Z,36.6
2023-01-21T04:55:32.265Z,34.1
2023-01-21T04:56:32.853Z,33.6
2023-01-21T04:57:33.459Z,36.3
2023-01-21T04:58:34.042Z,32.5
2023-01-21T04:59:34.633Z,35.3
2023-01-21T05:00:35.226Z,35.8
2023-01-21T05:01:35.835Z,33.1
2023-01-21T05:02:36.480Z,38.7
2023-01-21T05:03:37.047Z,33.4
2023-01-21T05:04:37.638Z,35.1
2023-01-21T05:05:38.237Z,36.7
2023-01-21T05:06:38.844Z,34.9
2023-01-21T05:07:39.456Z,29.4
2023-01-21T05:08:40.053Z,33.7
2023-01-21T05:09:40.645Z,31.3
2023-01-21T05:10:41.239Z,27.2
2023-01-21T05:11:41.835Z,31.8
2023-01-21T05:12:42.449Z,34.9
2023-01-21T05:13:43.047Z,33.6
2023-01-21T05:14:43.643Z,29.4
2023-01-21T05:15:44.284Z,34.6
2023-01-21T05:16:44.889Z,33.9
2023-01-21T05:17:45.437Z,28.6
2023-01-21T05:18:46.812Z,33.8
2023-01-21T05:19:47.441Z,33.0
2023-01-21T05:20:48.030Z,31.3
2023-01-21T05:21:48.625Z,31.8
2023-01-21T05:22:49.216Z,33.1
2023-01-21T05:23:49.820Z,31.8
2023-01-21T05:24:50.406Z,36.8
2023-01-21T05:25:50.997Z,34.1
2023-01-21T05:26:51.611Z,30.7
2023-01-21T05:27:52.207Z,31.2
2023-01-21T05:28:52.797Z,30.6
2023-01-21T05:29:53.410Z,32.5
2023-01-21T05:30:54.090Z,34.5
2023-01-21T05:31:54.696Z,36.7
2023-01-21T05:32:55.287Z,34.3
2023-01-21T05:33:55.868Z,33.2
2023-01-21T05:34:56.474Z,31.7
2023-01-21T05:35:57.057Z,31.9
2023-01-21T05:36:57.651Z,30.6
2023-01-21T05:38:00.334Z,34.0
2023-01-21T05:38:59.826Z,34.9
2023-01-21T05:40:00.438Z,33.7
2023-01-21T05:41:01.015Z,32.6
2023-01-21T05:42:01.609Z,29.5
2023-01-21T05:43:02.199Z,30.8
2023-01-21T05:44:02.796Z,34.1
2023-01-21T05:45:03.387Z,32.5
2023-01-21T05:46:04.046Z,31.0
2023-01-21T05:47:04.628Z,30.4
2023-01-21T05:48:05.195Z,34.2
2023-01-21T05:49:05.777Z,31.9
2023-01-21T05:50:06.380Z,33.3
2023-01-21T05:51:06.997Z,31.8
2023-01-21T05:52:07.573Z,29.9
2023-01-21T05:53:08.157Z,31.8
2023-01-21T05:54:08.751Z,30.2
2023-01-21T05:55:09.349Z,33.0
2023-01-21T05:56:09.941Z,30.4
2023-01-21T05:57:10.528Z,34.4
2023-01-21T05:58:11.127Z,34.7
2023-01-21T05:59:11.725Z,38.9
2023-01-21T06:00:12.310Z,34.4
2023-01-21T06:01:12.906Z,30.4
2023-01-21T06:02:13.540Z,29.2
2023-01-21T06:03:14.139Z,33.3
2023-01-21T06:04:14.700Z,31.9
2023-01-21T06:05:15.321Z,37.2
2023-01-21T06:06:15.915Z,34.8
2023-01-21T06:07:16.554Z,34.0
2023-01-21T06:08:17.116Z,35.2
2023-01-21T06:09:17.711Z,35.6
2023-01-21T06:10:18.636Z,34.6
2023-01-21T06:11:19.338Z,36.3
2023-01-21T06:12:19.929Z,35.6
2023-01-21T06:13:20.543Z,36.0
2023-01-21T06:14:21.170Z,35.0
2023-01-21T06:15:21.772Z,34.4
2023-01-21T06:16:22.351Z,37.0
2023-01-21T06:17:22.971Z,40.0
2023-01-21T06:18:23.555Z,37.6
2023-01-21T06:19:24.147Z,37.7
2023-01-21T06:20:24.742Z,38.1
2023-01-21T06:21:25.337Z,40.3
2023-01-21T06:22:25.930Z,35.2
2023-01-21T06:23:26.523Z,45.0
2023-01-21T06:24:27.123Z,41.5
2023-01-21T06:25:27.719Z,41.7
2023-01-21T06:26:28.308Z,37.6
2023-01-21T06:27:28.918Z,41.5
2023-01-21T06:28:29.521Z,37.5
2023-01-21T06:29:30.135Z,38.7
2023-01-21T06:30:30.742Z,39.6
2023-01-21T06:31:31.358Z,40.1
2023-01-21T06:32:31.951Z,37.2
2023-01-21T06:33:32.540Z,38.1
2023-01-21T06:34:33.136Z,33.6
2023-01-21T06:35:34.065Z,32.8
2023-01-21T06:36:34.565Z,34.4
2023-01-21T06:37:35.169Z,34.6
2023-01-21T06:38:35.751Z,31.1
2023-01-21T06:39:36.351Z,29.5
2023-01-21T06:40:36.938Z,33.0
2023-01-21T06:41:37.541Z,31.4
2023-01-21T06:42:38.129Z,30.7
2023-01-21T06:43:38.713Z,32.1
2023-01-21T06:44:39.336Z,35.5
2023-01-21T06:45:39.922Z,31.4
2023-01-21T06:46:43.515Z,33.8
2023-01-21T06:47:41.131Z,34.6
2023-01-21T06:48:41.726Z,32.2
2023-01-21T06:49:42.315Z,32.1
2023-01-21T06:50:42.909Z,35.5
2023-01-21T06:51:43.503Z,38.7
2023-01-21T06:52:44.097Z,31.8
2023-01-21T06:53:44.696Z,34.7
2023-01-21T06:54:45.285Z,42.6
2023-01-21T06:55:45.904Z,39.6
2023-01-21T06:56:46.502Z,37.7
2023-01-21T06:57:47.095Z,34.5
2023-01-21T06:58:47.695Z,35.2
2023-01-21T06:59:48.288Z,35.5
2023-01-21T07:00:48.882Z,40.7
2023-01-21T07:01:49.543Z,40.7
2023-01-21T07:02:50.118Z,39.8
2023-01-21T07:03:50.672Z,36.0
2023-01-21T07:04:51.367Z,34.7
2023-01-21T07:05:51.914Z,42.0
2023-01-21T07:06:52.528Z,44.5
2023-01-21T07:07:53.125Z,40.6
2023-01-21T07:08:53.740Z,37.4
2023-01-21T07:09:54.339Z,41.0
2023-01-21T07:10:54.929Z,42.5
2023-01-21T07:11:55.539Z,43.1
2023-01-21T07:12:56.118Z,39.0
2023-01-21T07:13:56.715Z,45.2
2023-01-21T07:14:57.322Z,41.6
2023-01-21T07:15:57.952Z,38.6
2023-01-21T07:16:58.523Z,41.7
2023-01-21T07:17:59.149Z,43.9
2023-01-21T07:18:59.724Z,45.5
2023-01-21T07:20:00.336Z,44.6
2023-01-21T07:21:00.949Z,46.2
2023-01-21T07:22:01.561Z,39.7
2023-01-21T07:23:02.131Z,45.3
2023-01-21T07:24:02.727Z,43.6
2023-01-21T07:25:03.317Z,48.2
2023-01-21T07:26:03.914Z,44.4
2023-01-21T07:27:04.520Z,44.7
2023-01-21T07:28:05.118Z,49.8
2023-01-21T07:29:05.714Z,46.6
2023-01-21T07:30:06.310Z,49.3
2023-01-21T07:31:07.084Z,48.9
2023-01-21T07:32:07.682Z,47.9
2023-01-21T07:33:08.277Z,50.4
2023-01-21T07:34:08.895Z,48.2
2023-01-21T07:35:09.500Z,48.1
2023-01-21T07:36:10.091Z,52.2
2023-01-21T07:37:10.683Z,50.1
2023-01-21T07:38:11.279Z,49.5
2023-01-21T07:39:11.878Z,52.0
2023-01-21T07:40:12.473Z,51.9
2023-01-21T07:41:13.072Z,45.9
2023-01-21T07:42:13.692Z,47.4
2023-01-21T07:43:14.283Z,51.6
2023-01-21T07:44:14.888Z,47.2
2023-01-21T07:45:15.756Z,49.2
2023-01-21T07:46:16.424Z,53.5
2023-01-21T07:47:16.984Z,48.3
2023-01-21T07:48:17.598Z,54.1
2023-01-21T07:49:18.203Z,53.0
2023-01-21T07:50:18.809Z,61.5
2023-01-21T07:51:19.460Z,58.7
2023-01-21T07:52:20.053Z,59.7
2023-01-21T07:53:20.653Z,62.2
2023-01-21T07:54:21.253Z,58.7
2023-01-21T07:55:21.873Z,63.6
2023-01-21T07:56:22.475Z,60.9
2023-01-21T07:57:23.087Z,59.3
2023-01-21T07:58:23.710Z,64.1
2023-01-21T07:59:24.319Z,69.0
2023-01-21T08:00:24.914Z,61.3
2023-01-21T08:01:25.670Z,63.4
2023-01-21T08:02:26.293Z,62.5
2023-01-21T08:03:26.850Z,58.4
2023-01-21T08:04:27.450Z,59.7
2023-01-21T08:05:28.051Z,54.6
2023-01-21T08:06:28.677Z,64.3
2023-01-21T08:07:29.270Z,63.8
2023-01-21T08:08:29.855Z,62.0
2023-01-21T08:09:30.455Z,67.1
2023-01-21T08:10:31.071Z,64.1
2023-01-21T08:11:31.665Z,63.5
2023-01-21T08:12:32.262Z,62.6
2023-01-21T08:13:32.864Z,62.3
2023-01-21T08:14:33.475Z,68.8
2023-01-21T08:15:34.075Z,62.0
2023-01-21T08:16:34.746Z,61.6
2023-01-21T08:17:35.347Z,71.8
2023-01-21T08:18:35.952Z,63.5
2023-01-21T08:19:36.560Z,63.5
2023-01-21T08:20:37.157Z,63.7
2023-01-21T08:21:37.794Z,63.9
2023-01-21T08:22:38.387Z,74.2
2023-01-21T08:23:38.987Z,72.1
2023-01-21T08:24:39.585Z,64.5
2023-01-21T08:25:40.185Z,68.6
2023-01-21T08:26:40.788Z,66.8
2023-01-21T08:27:41.407Z,77.4
2023-01-21T08:28:42.026Z,77.3
2023-01-21T08:29:42.643Z,75.4
2023-01-21T08:30:43.298Z,74.4
2023-01-21T08:31:43.910Z,72.1
2023-01-21T08:32:44.478Z,72.7
2023-01-21T08:33:45.099Z,80.4
2023-01-21T08:34:45.714Z,85.6
2023-01-21T08:35:46.374Z,76.2
2023-01-21T08:36:46.922Z,77.9
2023-01-21T08:37:47.539Z,76.0
2023-01-21T08:38:48.889Z,82.9
2023-01-21T08:39:49.453Z,82.2
2023-01-21T08:40:50.072Z,80.6
2023-01-21T08:41:50.667Z,75.5
2023-01-21T08:42:51.268Z,79.0
2023-01-21T08:43:51.880Z,84.9
2023-01-21T08:44:52.467Z,89.8
2023-01-21T08:45:53.096Z,79.4
2023-01-21T08:46:53.666Z,88.6
2023-01-21T08:47:54.284Z,86.9
2023-01-21T08:48:54.879Z,94.3
2023-01-21T08:49:55.477Z,84.6
2023-01-21T08:50:56.143Z,86.5
2023-01-21T08:51:56.725Z,97.0
2023-01-21T08:52:57.327Z,97.9
2023-01-21T08:53:57.923Z,97.9
2023-01-21T08:54:58.521Z,91.9
2023-01-21T08:55:59.118Z,92.3
2023-01-21T08:56:59.718Z,95.9
2023-01-21T08:58:00.317Z,94.4
2023-01-21T08:59:00.934Z,91.7
2023-01-21T09:00:01.598Z,102.2
2023-01-21T09:01:02.253Z,100.6
2023-01-21T09:02:02.828Z,99.4
2023-01-21T09:03:03.406Z,96.6
2023-01-21T09:04:04.016Z,105.0
2023-01-21T09:05:04.614Z,115.1
2023-01-21T09:06:05.209Z,106.6
2023-01-21T09:07:05.812Z,95.9
2023-01-21T09:08:06.404Z,97.5
2023-01-21T09:09:07.007Z,99.6
2023-01-21T09:10:07.612Z,115.1
2023-01-21T09:11:08.229Z,101.9
2023-01-21T09:12:08.852Z,99.8
2023-01-21T09:13:09.471Z,108.5
2023-01-21T09:14:10.094Z,110.4
2023-01-21T09:15:10.715Z,98.0
2023-01-21T09:16:11.343Z,107.8
2023-01-21T09:17:11.939Z,99.7
2023-01-21T09:18:12.548Z,98.8
2023-01-21T09:19:13.160Z,106.2
2023-01-21T09:20:13.751Z,108.0
2023-01-21T09:21:14.366Z,98.2
2023-01-21T09:22:14.966Z,107.6
2023-01-21T09:23:15.569Z,100.3
2023-01-21T09:24:16.204Z,96.0
2023-01-21T09:25:16.980Z,95.2
2023-01-21T09:26:17.600Z,105.8
2023-01-21T09:27:18.203Z,102.9
2023-01-21T09:28:18.801Z,106.2
2023-01-21T09:29:19.397Z,105.5
2023-01-21T09:30:20.004Z,97.0
2023-01-21T09:31:20.679Z,98.6
2023-01-21T09:32:21.261Z,106.2
2023-01-21T09:33:21.857Z,103.1
2023-01-21T09:34:22.459Z,104.2
2023-01-21T09:35:23.058Z,109.6
2023-01-21T09:36:23.657Z,97.6
2023-01-21T09:37:24.257Z,96.4
2023-01-21T09:38:24.853Z,92.1
2023-01-21T09:39:25.456Z,91.9
2023-01-21T09:40:26.061Z,92.6
2023-01-21T09:41:26.658Z,92.2
2023-01-21T09:42:27.272Z,86.4
2023-01-21T09:43:27.871Z,87.1
2023-01-21T09:44:28.489Z,91.0
2023-01-21T09:45:29.091Z,92.9
2023-01-21T09:46:29.697Z,89.5
2023-01-21T09:47:30.317Z,88.8
2023-01-21T09:48:30.914Z,86.4
2023-01-21T09:49:31.529Z,81.7
2023-01-21T09:50:32.165Z,81.1
2023-01-21T09:51:32.785Z,84.0
2023-01-21T09:52:33.395Z,88.3
2023-01-21T09:53:33.985Z,77.2
2023-01-21T09:54:34.614Z,73.9
2023-01-21T09:55:35.206Z,74.2
2023-01-21T09:56:35.805Z,77.0
2023-01-21T09:57:36.412Z,83.1
2023-01-21T09:58:37.030Z,72.2
2023-01-21T09:59:37.625Z,80.2
2023-01-21T10:00:38.221Z,69.0
2023-01-21T10:01:38.830Z,73.3
2023-01-21T10:02:39.448Z,74.0
2023-01-21T10:03:40.052Z,67.4
2023-01-21T10:04:40.754Z,72.3
2023-01-21T10:05:41.260Z,67.7
2023-01-21T10:06:41.853Z,74.4
2023-01-21T10:07:42.452Z,65.7
2023-01-21T10:08:43.071Z,67.4
2023-01-21T10:09:43.681Z,64.9
2023-01-21T10:10:44.286Z,66.6
2023-01-21T10:11:46.274Z,64.0
2023-01-21T10:12:46.480Z,64.2
2023-01-21T10:13:47.104Z,55.8
2023-01-21T10:14:47.717Z,52.7
2023-01-21T10:15:48.317Z,58.1
2023-01-21T10:16:49.028Z,53.0
2023-01-21T10:17:49.529Z,55.6
2023-01-21T10:18:50.129Z,52.1
2023-01-21T10:19:50.745Z,54.3
2023-01-21T10:20:51.363Z,51.3
2023-01-21T10:21:51.964Z,49.3
2023-01-21T10:22:52.564Z,48.8
2023-01-21T10:23:53.158Z,50.6
2023-01-21T10:24:53.759Z,50.9
2023-01-21T10:25:54.358Z,50.3
2023-01-21T10:26:54.956Z,46.6
2023-01-21T10:27:55.557Z,50.0
2023-01-21T10:28:56.152Z,48.5
2023-01-21T10:29:56.773Z,47.0
2023-01-21T10:30:57.397Z,43.1
2023-01-21T10:31:57.990Z,47.7
2023-01-21T10:32:58.587Z,43.6
2023-01-21T10:33:59.193Z,44.2
2023-01-21T10:34:59.785Z,43.7
2023-01-21T10:36:00.386Z,38.8
2023-01-21T10:37:00.987Z,40.6
2023-01-21T10:38:01.588Z,42.8
2023-01-21T10:39:02.188Z,38.3
2023-01-21T10:40:02.839Z,37.7
2023-01-21T10:41:03.444Z,36.6
2023-01-21T10:42:04.015Z,34.0
2023-01-21T10:43:04.612Z,37.2
2023-01-21T10:44:05.231Z,32.5
2023-01-21T10:45:05.856Z,32.3
2023-01-21T10:46:06.490Z,32.5
2023-01-21T10:47:07.092Z,30.4
2023-01-21T10:48:07.670Z,28.0
2023-01-21T10:49:08.268Z,26.4
2023-01-21T10:50:08.870Z,23.5
2023-01-21T10:51:09.539Z,24.9
2023-01-21T10:52:10.084Z,29.5
2023-01-21T10:53:10.675Z,25.8
2023-01-21T10:54:11.277Z,26.7
2023-01-21T10:55:11.891Z,21.3
2023-01-21T10:56:12.482Z,22.0
2023-01-21T10:57:13.075Z,22.3
2023-01-21T10:58:13.674Z,24.4
2023-01-21T10:59:14.282Z,20.4
2023-01-21T11:00:14.911Z,25.2
2023-01-21T11:01:15.515Z,22.4
2023-01-21T11:02:16.166Z,23.9
2023-01-21T11:03:16.740Z,22.2
2023-01-21T11:04:17.338Z,24.1
2023-01-21T11:05:18.218Z,27.5
2023-01-21T11:06:18.930Z,26.5
2023-01-21T11:07:19.523Z,22.6
2023-01-21T11:08:20.141Z,22.4
2023-01-21T11:09:20.743Z,25.9
2023-01-21T11:10:21.370Z,25.3
2023-01-21T11:11:22.000Z,27.8
2023-01-21T11:12:22.584Z,23.1
2023-01-21T11:13:23.183Z,24.0
2023-01-21T11:14:23.781Z,22.2
2023-01-21T11:15:24.412Z,23.6
2023-01-21T11:16:25.026Z,23.1
2023-01-21T11:17:25.646Z,26.3
2023-01-21T11:18:26.264Z,21.8
2023-01-21T11:19:26.865Z,24.7
2023-01-21T11:20:27.464Z,25.2
2023-01-21T11:21:28.061Z,23.0
2023-01-21T11:22:28.663Z,25.9
2023-01-21T11:23:29.267Z,24.7
2023-01-21T11:24:29.868Z,28.3
2023-01-21T11:25:30.464Z,25.5
2023-01-21T11:26:31.071Z,26.5
2023-01-21T11:27:31.685Z,24.8
2023-01-21T11:28:32.277Z,26.4
2023-01-21T11:29:32.887Z,25.0
2023-01-21T11:30:49.728Z,26.3
2023-01-21T11:31:35.043Z,27.6
2023-01-21T11:32:35.592Z,27.1
2023-01-21T11:33:36.186Z,29.1
2023-01-21T11:34:36.791Z,25.8
2023-01-21T11:35:37.408Z,21.3
2023-01-21T11:36:38.009Z,25.3
2023-01-21T11:37:38.626Z,26.5
2023-01-21T11:38:39.217Z,26.1
2023-01-21T11:39:39.811Z,25.0
2023-01-21T11:40:40.417Z,28.5
2023-01-21T11:41:41.014Z,25.3
2023-01-21T11:42:41.630Z,24.7
2023-01-21T11:43:42.265Z,23.7
2023-01-21T11:44:42.844Z,21.0
2023-01-21T11:45:43.432Z,25.1
2023-01-21T11:46:44.032Z,23.1
2023-01-21T11:47:44.632Z,24.5
2023-01-21T11:48:45.232Z,20.2
2023-01-21T11:49:45.832Z,25.1
2023-01-21T11:50:46.451Z,23.3
2023-01-21T11:51:47.046Z,20.9
2023-01-21T11:52:47.633Z,16.6
2023-01-21T11:53:48.255Z,19.5
2023-01-21T11:54:48.859Z,23.0
2023-01-21T11:55:49.457Z,22.5
2023-01-21T11:56:50.058Z,18.2
2023-01-21T11:57:50.651Z,15.9
2023-01-21T11:58:51.255Z,19.5
2023-01-21T11:59:51.856Z,17.0
2023-01-21T12:00:52.455Z,20.4
2023-01-21T12:01:53.056Z,19.9
2023-01-21T12:02:53.764Z,22.5
2023-01-21T12:03:54.394Z,20.8
2023-01-21T12:04:54.972Z,18.8
2023-01-21T12:05:55.580Z,24.4
2023-01-21T12:06:56.173Z,22.9
2023-01-21T12:07:56.775Z,22.6
2023-01-21T12:08:57.381Z,23.5
2023-01-21T12:09:58.029Z,21.5
2023-01-21T12:10:58.602Z,21.8
2023-01-21T12:11:59.204Z,17.5
2023-01-21T12:12:59.808Z,20.4
2023-01-21T12:14:00.416Z,20.7
2023-01-21T12:15:01.057Z,18.5
2023-01-21T12:16:01.663Z,19.6
2023-01-21T12:17:02.242Z,20.9
2023-01-21T12:18:02.848Z,18.4
2023-01-21T12:19:03.450Z,20.4
2023-01-21T12:20:04.048Z,23.3
2023-01-21T12:21:04.647Z,22.1
2023-01-21T12:22:05.249Z,22.3
2023-01-21T12:23:05.847Z,21.1
2023-01-21T12:24:06.454Z,21.5
2023-01-21T12:25:07.069Z,22.1
2023-01-21T12:26:07.670Z,21.3
2023-01-21T12:27:08.269Z,20.4
2023-01-21T12:28:08.883Z,21.7
2023-01-21T12:29:09.477Z,21.4
2023-01-21T12:30:10.082Z,20.1
2023-01-21T12:31:10.761Z,21.9
2023-01-21T12:32:11.377Z,17.1
2023-01-21T12:33:11.980Z,19.7
2023-01-21T12:34:12.599Z,17.4
2023-01-21T12:35:13.196Z,17.1
2023-01-21T12:36:13.797Z,20.1
2023-01-21T12:37:14.403Z,19.0
2023-01-21T12:38:15.013Z,14.9
2023-01-21T12:39:15.619Z,16.1
2023-01-21T12:40:16.666Z,19.3
2023-01-21T12:41:17.340Z,17.3
2023-01-21T12:42:17.929Z,19.2
2023-01-21T12:43:18.529Z,18.1
2023-01-21T12:44:19.130Z,19.5
2023-01-21T12:45:19.953Z,17.0
2023-01-21T12:46:20.383Z,19.5
2023-01-21T12:47:20.943Z,18.0
2023-01-21T12:48:21.544Z,16.8
2023-01-21T12:49:22.155Z,17.0
2023-01-21T12:50:22.744Z,19.7
2023-01-21T12:51:23.367Z,20.1
2023-01-21T12:52:23.954Z,15.1
2023-01-21T12:53:24.546Z,16.7
2023-01-21T12:54:25.149Z,18.8
2023-01-21T12:55:25.762Z,16.1
2023-01-21T12:56:26.396Z,20.1
2023-01-21T12:57:27.023Z,18.6
2023-01-21T12:58:27.639Z,16.1
2023-01-21T12:59:29.943Z,16.8
2023-01-21T13:00:29.860Z,18.2
2023-01-21T13:01:30.460Z,18.7
2023-01-21T13:02:31.059Z,14.7
2023-01-21T13:03:31.665Z,21.4
2023-01-21T13:04:32.278Z,15.1
2023-01-21T13:05:32.865Z,21.2
2023-01-21T13:06:46.903Z,17.4
2023-01-21T13:07:34.193Z,21.2
2023-01-21T13:08:34.807Z,17.4
2023-01-21T13:09:35.393Z,18.2
2023-01-21T13:10:36.022Z,19.1
2023-01-21T13:11:36.633Z,17.2
2023-01-21T13:12:37.239Z,16.2
2023-01-21T13:13:37.834Z,17.3
2023-01-21T13:14:38.438Z,15.1
2023-01-21T13:15:39.035Z,18.2
2023-01-21T13:16:39.726Z,15.4
2023-01-21T13:17:40.254Z,16.8
2023-01-21T13:18:40.880Z,17.9
2023-01-21T13:19:41.504Z,18.3
2023-01-21T13:20:42.096Z,18.0
2023-01-21T13:21:42.697Z,16.5
2023-01-21T13:22:43.297Z,15.8
2023-01-21T13:23:43.919Z,14.9
2023-01-21T13:24:44.518Z,14.7
2023-01-21T13:25:45.119Z,15.2